Time;durP1;ratioP1;P1;durP2;ratioP2;P2;SDS_P1;SDS_P2;PMS_P1;PMS_P2;Temp;Humidity;BMP_temperature;BMP_pressure;BME280_temperature;BME280_humidity;BME280_pressure;Samples;Min_cycle;Max_cycle;Signal;HPM_P1;HPM_P2
2022/06/14 00:01:53;;;;;;;2.50;1.00;;;16.50;85.00;;;;;;5028953;28;20213;-35
2022/06/14 00:04:22;;;;;;;3.78;1.23;;;16.40;84.80;;;;;;5031228;28;20197;-35
2022/06/14 00:06:50;;;;;;;3.10;1.02;;;16.40;84.90;;;;;;5028587;28;20774;-35
2022/06/14 00:09:22;;;;;;;3.53;1.20;;;16.40;85.10;;;;;;5031023;28;20208;-35
2022/06/14 00:11:49;;;;;;;4.05;1.30;;;16.30;85.10;;;;;;5030690;28;20232;-35
2022/06/14 00:14:19;;;;;;;3.28;1.23;;;16.30;85.10;;;;;;5030518;28;20247;-35
2022/06/14 00:16:46;;;;;;;4.45;1.00;;;16.30;85.20;;;;;;5032757;28;20233;-35
2022/06/14 00:19:15;;;;;;;5.28;1.23;;;16.30;85.20;;;;;;5030210;28;20288;-35
2022/06/14 00:21:43;;;;;;;4.13;1.20;;;16.20;85.10;;;;;;5029648;28;20236;-35
2022/06/14 00:24:10;;;;;;;3.63;1.30;;;16.20;85.30;;;;;;5030709;28;20236;-35
2022/06/14 00:26:42;;;;;;;5.25;1.65;;;16.20;85.30;;;;;;5029079;28;20225;-35
2022/06/14 00:29:09;;;;;;;3.97;1.42;;;16.10;85.40;;;;;;5030660;28;20201;-35
2022/06/14 00:31:36;;;;;;;3.47;1.20;;;16.10;85.40;;;;;;5029400;28;20216;-35
2022/06/14 00:34:04;;;;;;;2.85;1.42;;;16.10;85.50;;;;;;5029825;28;20212;-34
2022/06/14 00:36:34;;;;;;;4.53;1.35;;;16.10;85.50;;;;;;5029549;28;20209;-35
2022/06/14 00:39:05;;;;;;;6.60;1.55;;;16.00;85.60;;;;;;5030318;28;20207;-35
2022/06/14 00:41:42;;;;;;;2.88;1.25;;;16.00;86.30;;;;;;5028699;28;20710;-35
2022/06/14 00:44:17;;;;;;;3.95;1.30;;;16.00;85.90;;;;;;5030737;28;20721;-35
2022/06/14 00:47:11;;;;;;;5.10;1.50;;;16.00;86.00;;;;;;5029596;28;20214;-35
2022/06/14 00:49:52;;;;;;;3.80;1.50;;;16.00;86.00;;;;;;5028307;28;20217;-35
2022/06/14 00:52:44;;;;;;;3.63;1.50;;;15.90;85.80;;;;;;5029027;28;20295;-35
2022/06/14 00:55:26;;;;;;;3.58;1.80;;;15.90;86.10;;;;;;5012095;28;20229;-35
2022/06/14 00:58:07;;;;;;;3.58;1.33;;;15.90;86.10;;;;;;5013844;28;20240;-35
2022/06/14 01:01:01;;;;;;;4.00;1.55;;;15.80;86.00;;;;;;5025554;28;20197;-35
2022/06/14 01:03:41;;;;;;;4.95;1.52;;;15.80;86.20;;;;;;5023185;28;20669;-35
2022/06/14 01:06:24;;;;;;;4.38;2.15;;;15.80;86.20;;;;;;5011144;28;20561;-36
2022/06/14 01:09:00;;;;;;;5.25;1.63;;;15.70;86.20;;;;;;5023794;28;20224;-36
2022/06/14 01:11:53;;;;;;;3.95;1.50;;;15.70;86.10;;;;;;5019504;28;20313;-35
2022/06/14 01:14:32;;;;;;;6.03;1.60;;;15.70;86.50;;;;;;5019320;28;20252;-36
2022/06/14 01:17:02;;;;;;;3.67;1.35;;;15.70;86.40;;;;;;5019816;28;20318;-36
2022/06/14 01:19:30;;;;;;;2.72;1.02;;;15.60;86.10;;;;;;5007569;28;20208;-36
2022/06/14 01:22:05;;;;;;;4.28;1.50;;;15.60;86.20;;;;;;5019576;28;20214;-36
2022/06/14 01:24:34;;;;;;;3.65;1.33;;;15.60;86.20;;;;;;5054693;28;20687;-36
2022/06/14 01:27:04;;;;;;;2.50;1.20;;;15.50;86.30;;;;;;5018196;28;20262;-36
2022/06/14 01:29:33;;;;;;;3.45;1.50;;;15.50;86.30;;;;;;5029827;28;20494;-36
2022/06/14 01:32:04;;;;;;;4.68;1.40;;;15.50;86.50;;;;;;5028425;28;20296;-35
2022/06/14 01:34:37;;;;;;;4.50;1.48;;;15.40;86.50;;;;;;5027307;28;20212;-36
2022/06/14 01:37:07;;;;;;;2.43;1.40;;;15.40;86.60;;;;;;5029126;28;20213;-36
2022/06/14 01:39:36;;;;;;;3.80;1.35;;;15.40;86.80;;;;;;5027814;28;20197;-36
2022/06/14 01:42:21;;;;;;;3.80;1.60;;;15.40;86.70;;;;;;5015472;28;20209;-36
2022/06/14 01:45:02;;;;;;;4.32;1.63;;;15.40;86.80;;;;;;5027674;28;20267;-36
2022/06/14 01:47:37;;;;;;;4.03;1.40;;;15.40;86.90;;;;;;5027259;28;20706;-36
2022/06/14 01:53:27;;;;;;;2.65;1.45;;;15.30;87.20;;;;;;5028348;28;20193;-36
2022/06/14 01:56:07;;;;;;;1.60;1.20;;;15.30;87.20;;;;;;5026370;28;20225;-36
2022/06/14 01:58:44;;;;;;;2.93;1.43;;;15.20;87.20;;;;;;5028781;28;20227;-36
2022/06/14 02:01:16;;;;;;;3.67;1.60;;;15.20;87.20;;;;;;5026147;28;20629;-35
2022/06/14 02:06:47;;;;;;;2.93;1.20;;;15.20;87.30;;;;;;5028146;28;20712;-36
2022/06/14 02:09:24;;;;;;;3.38;1.80;;;15.10;87.50;;;;;;5012938;28;20967;-36
2022/06/14 02:11:54;;;;;;;3.13;1.47;;;15.10;87.50;;;;;;5027570;28;20205;-36
2022/06/14 02:14:31;;;;;;;4.57;1.55;;;15.10;87.60;;;;;;5028553;28;20677;-36
2022/06/14 02:17:04;;;;;;;3.03;1.40;;;15.10;87.80;;;;;;5033823;28;20232;-36
2022/06/14 02:19:50;;;;;;;2.80;1.40;;;15.10;87.90;;;;;;5026915;28;20652;-36
2022/06/14 02:22:22;;;;;;;3.37;1.20;;;15.10;88.20;;;;;;5025129;28;20201;-36
2022/06/14 02:25:02;;;;;;;2.15;1.25;;;15.10;87.80;;;;;;5024722;28;20228;-36
2022/06/14 02:27:50;;;;;;;3.60;1.40;;;15.10;88.20;;;;;;5014729;28;20224;-36
2022/06/14 02:30:22;;;;;;;3.70;1.60;;;15.00;88.30;;;;;;5026744;28;20620;-36
2022/06/14 02:32:59;;;;;;;2.17;1.48;;;15.00;88.10;;;;;;5026155;28;20201;-36
2022/06/14 02:35:32;;;;;;;4.30;1.50;;;15.00;88.60;;;;;;5011984;28;20237;-36
2022/06/14 02:38:24;;;;;;;2.93;1.50;;;14.90;88.60;;;;;;5027838;28;20201;-36
2022/06/14 02:41:04;;;;;;;5.00;1.92;;;14.90;88.70;;;;;;5028450;28;20303;-36
2022/06/14 02:43:47;;;;;;;2.83;1.50;;;14.90;88.70;;;;;;5028482;28;20232;-36
2022/06/14 02:46:25;;;;;;;3.15;1.50;;;14.90;89.10;;;;;;5027221;28;20228;-36
2022/06/14 02:49:02;;;;;;;5.38;1.70;;;14.80;88.60;;;;;;5026753;28;20216;-36
2022/06/14 02:51:38;;;;;;;2.70;1.40;;;14.80;88.60;;;;;;5028110;28;20648;-36
2022/06/14 02:54:13;;;;;;;4.13;1.63;;;14.80;88.80;;;;;;5026461;28;20659;-36
2022/06/14 02:56:49;;;;;;;3.95;1.40;;;14.80;88.80;;;;;;5012628;28;20238;-36
2022/06/14 02:59:39;;;;;;;4.47;1.50;;;14.80;89.20;;;;;;5026485;28;20692;-36
2022/06/14 03:02:13;;;;;;;3.63;1.85;;;14.70;89.40;;;;;;5026096;28;20197;-36
2022/06/14 03:05:06;;;;;;;3.30;1.13;;;14.70;88.90;;;;;;5020841;28;20320;-36
2022/06/14 03:08:05;;;;;;;6.38;1.90;;;14.70;89.00;;;;;;5027614;28;20943;-36
2022/06/14 03:10:47;;;;;;;4.25;1.50;;;14.70;89.00;;;;;;5025821;28;20209;-36
2022/06/14 03:13:38;;;;;;;3.90;1.30;;;14.60;88.90;;;;;;5026623;28;20223;-36
2022/06/14 03:16:24;;;;;;;3.78;1.63;;;14.60;89.10;;;;;;5030182;28;20227;-36
2022/06/14 03:19:08;;;;;;;3.95;1.80;;;14.60;88.90;;;;;;5033525;28;20201;-36
2022/06/14 03:21:50;;;;;;;2.65;1.50;;;14.60;89.20;;;;;;5026696;28;20212;-35
2022/06/14 03:24:55;;;;;;;4.47;1.50;;;14.60;89.00;;;;;;5027992;28;20262;-36
2022/06/14 03:27:49;;;;;;;2.95;1.40;;;14.50;89.40;;;;;;5010851;28;20288;-36
2022/06/14 03:30:21;;;;;;;3.70;1.50;;;14.50;89.20;;;;;;5027071;28;20221;-36
2022/06/14 03:33:03;;;;;;;3.03;1.60;;;14.50;89.00;;;;;;5027621;28;20205;-36
2022/06/14 03:35:40;;;;;;;2.88;1.40;;;14.50;89.10;;;;;;5027501;28;20576;-36
2022/06/14 03:38:26;;;;;;;4.55;1.70;;;14.50;89.20;;;;;;5027377;28;20213;-35
2022/06/14 03:40:53;;;;;;;3.20;1.67;;;14.50;89.40;;;;;;5027232;28;20295;-36
2022/06/14 03:43:23;;;;;;;3.70;1.60;;;14.40;89.20;;;;;;5054467;28;20300;-36
2022/06/14 03:46:13;;;;;;;2.80;1.55;;;14.40;89.10;;;;;;5027093;28;20271;-36
2022/06/14 03:48:45;;;;;;;2.90;1.70;;;14.40;89.60;;;;;;5028000;28;20304;-36
2022/06/14 03:51:44;;;;;;;3.83;1.47;;;14.40;89.30;;;;;;5027843;28;20193;-36
2022/06/14 03:54:11;;;;;;;3.22;1.50;;;14.30;89.30;;;;;;5021477;28;20308;-35
2022/06/14 03:57:15;;;;;;;2.90;1.80;;;14.30;89.10;;;;;;5025958;28;20236;-36
2022/06/14 04:00:01;;;;;;;2.83;1.73;;;14.30;89.70;;;;;;5018521;28;20581;-36
2022/06/14 04:02:56;;;;;;;4.47;2.20;;;14.30;89.20;;;;;;5024413;28;20193;-36
2022/06/14 04:05:32;;;;;;;3.33;1.53;;;14.30;89.70;;;;;;5026965;28;20573;-36
2022/06/14 04:08:25;;;;;;;2.67;1.40;;;14.20;89.40;;;;;;5026143;28;20205;-36
2022/06/14 04:11:36;;;;;;;7.37;1.70;;;14.20;90.00;;;;;;5027679;28;20209;-36
2022/06/14 04:14:39;;;;;;;5.23;1.80;;;14.10;90.00;;;;;;5027092;28;20216;-36
2022/06/14 04:17:13;;;;;;;4.40;1.90;;;14.10;90.10;;;;;;5029476;28;20333;-36
2022/06/14 04:20:16;;;;;;;5.75;2.00;;;14.10;89.90;;;;;;5032904;28;20217;-36
2022/06/14 04:22:53;;;;;;;3.70;1.73;;;14.10;90.10;;;;;;5026174;28;20212;-37
2022/06/14 04:25:25;;;;;;;3.93;1.70;;;14.10;90.00;;;;;;5026070;28;20214;-36
2022/06/14 04:28:13;;;;;;;5.23;1.53;;;14.00;90.00;;;;;;5018036;28;20206;-36
2022/06/14 04:31:06;;;;;;;2.07;1.50;;;14.10;89.90;;;;;;5023593;28;20315;-36
2022/06/14 04:34:06;;;;;;;2.73;1.67;;;14.10;90.10;;;;;;5030306;28;20208;-36
2022/06/14 04:36:42;;;;;;;3.77;1.70;;;14.10;90.10;;;;;;5029361;28;20228;-36
2022/06/14 04:39:22;;;;;;;4.65;1.55;;;14.00;90.00;;;;;;5030372;28;20193;-36
2022/06/14 04:41:58;;;;;;;2.83;1.87;;;14.10;90.20;;;;;;5030085;28;20755;-36
2022/06/14 04:45:24;;;;;;;2.47;1.63;;;14.10;90.10;;;;;;5061655;28;20201;-36
2022/06/14 04:48:00;;;;;;;3.70;1.77;;;14.10;90.20;;;;;;5026059;28;20643;-36
2022/06/14 04:50:41;;;;;;;2.93;1.63;;;14.10;90.10;;;;;;5017725;28;20204;-36
2022/06/14 04:53:19;;;;;;;3.07;1.70;;;14.10;90.20;;;;;;5026020;28;20642;-36
2022/06/14 04:56:24;;;;;;;3.87;1.97;;;14.20;90.20;;;;;;5029701;28;20307;-36
2022/06/14 04:58:59;;;;;;;4.93;1.93;;;14.20;90.30;;;;;;5023691;28;20484;-36
2022/06/14 05:01:50;;;;;;;5.25;2.22;;;14.20;90.20;;;;;;5016396;28;20193;-37
2022/06/14 05:04:30;;;;;;;5.57;2.35;;;14.30;90.30;;;;;;5058933;28;20209;-37
2022/06/14 05:07:24;;;;;;;3.80;2.17;;;14.30;90.30;;;;;;5027373;28;20231;-36
2022/06/14 05:10:15;;;;;;;5.10;2.35;;;14.30;90.30;;;;;;5016552;28;20229;-36
2022/06/14 05:13:01;;;;;;;5.28;2.47;;;14.30;90.30;;;;;;5022928;28;20283;-36
2022/06/14 05:15:49;;;;;;;5.80;2.43;;;14.40;90.30;;;;;;5027093;28;20818;-37
2022/06/14 05:18:36;;;;;;;4.87;2.70;;;14.40;90.70;;;;;;5038881;28;20200;-36
2022/06/14 05:21:24;;;;;;;5.45;2.45;;;14.50;90.40;;;;;;5029715;28;20609;-35
2022/06/14 05:23:54;;;;;;;3.93;2.57;;;14.60;90.50;;;;;;5029298;28;20215;-36
2022/06/14 05:26:44;;;;;;;7.95;2.90;;;14.60;90.40;;;;;;5029651;28;20199;-36
2022/06/14 05:29:45;;;;;;;4.95;2.80;;;14.70;90.50;;;;;;5028252;28;20719;-36
2022/06/14 05:32:39;;;;;;;7.27;3.20;;;14.80;90.60;;;;;;5027955;28;20208;-36
2022/06/14 05:35:32;;;;;;;7.82;2.95;;;14.80;90.60;;;;;;5017895;28;20456;-36
2022/06/14 05:38:36;;;;;;;8.40;3.50;;;14.90;90.70;;;;;;5028843;28;20311;-36
2022/06/14 05:41:24;;;;;;;6.83;3.00;;;15.00;90.70;;;;;;5025911;28;20219;-36
2022/06/14 05:44:08;;;;;;;7.07;2.50;;;15.00;90.70;;;;;;5022117;28;20623;-35
2022/06/14 05:46:50;;;;;;;4.97;2.83;;;15.10;90.70;;;;;;5026177;28;20374;-36
2022/06/14 05:49:21;;;;;;;6.55;3.30;;;15.20;90.80;;;;;;5024265;28;20225;-36
2022/06/14 05:51:59;;;;;;;8.35;2.80;;;15.30;90.80;;;;;;5027852;28;20207;-36
2022/06/14 05:54:42;;;;;;;6.63;2.45;;;15.40;90.90;;;;;;5028925;28;20296;-36
2022/06/14 05:57:47;;;;;;;6.63;2.30;;;15.40;90.90;;;;;;5025110;28;20716;-37
2022/06/14 06:00:16;;;;;;;4.25;2.03;;;15.50;90.90;;;;;;5026299;28;20685;-35
2022/06/14 06:02:58;;;;;;;4.33;2.10;;;15.60;90.90;;;;;;5023044;28;20635;-35
2022/06/14 06:05:35;;;;;;;7.40;2.35;;;15.70;91.00;;;;;;5025547;28;20221;-35
2022/06/14 06:08:18;;;;;;;7.75;2.33;;;15.70;91.10;;;;;;5024173;28;20224;-35
2022/06/14 06:10:48;;;;;;;8.30;2.33;;;15.80;91.30;;;;;;5032414;28;20204;-36
2022/06/14 06:13:28;;;;;;;4.82;2.00;;;15.80;91.00;;;;;;5026648;28;20229;-36
2022/06/14 06:16:12;;;;;;;3.78;1.88;;;15.90;91.10;;;;;;5027554;28;20221;-36
2022/06/14 06:19:14;;;;;;;4.97;2.15;;;16.00;91.10;;;;;;5012848;28;20576;-36
2022/06/14 06:22:01;;;;;;;6.17;2.03;;;16.00;91.10;;;;;;5022119;28;20463;-35
2022/06/14 06:24:37;;;;;;;4.20;1.63;;;16.10;91.20;;;;;;5029219;28;20235;-36
2022/06/14 06:27:12;;;;;;;6.50;1.67;;;16.20;91.10;;;;;;5026086;28;20216;-36
2022/06/14 06:29:42;;;;;;;6.78;1.55;;;16.20;91.10;;;;;;5020731;28;20201;-36
2022/06/14 06:32:09;;;;;;;7.00;1.80;;;16.30;91.10;;;;;;5020740;28;20658;-36
2022/06/14 06:34:40;;;;;;;6.72;1.60;;;16.40;91.10;;;;;;5021767;28;20267;-36
2022/06/14 06:37:11;;;;;;;5.30;1.50;;;16.40;91.20;;;;;;5031030;28;20232;-36
2022/06/14 06:39:51;;;;;;;5.97;1.88;;;16.50;91.20;;;;;;5026217;28;20201;-36
2022/06/14 06:43:09;;;;;;;4.53;1.70;;;16.60;91.30;;;;;;5029776;28;20695;-37
2022/06/14 06:45:44;;;;;;;4.72;1.42;;;16.60;91.20;;;;;;4997043;28;20220;-36
2022/06/14 06:48:24;;;;;;;8.45;1.70;;;16.70;91.30;;;;;;5035340;28;20218;-36
2022/06/14 06:51:06;;;;;;;6.78;1.77;;;16.80;91.40;;;;;;5027888;28;20679;-36
2022/06/14 06:53:45;;;;;;;8.02;1.90;;;16.80;91.40;;;;;;5022460;28;20205;-35
2022/06/14 06:56:24;;;;;;;5.90;1.83;;;16.80;91.40;;;;;;5025979;28;20201;-36
2022/06/14 06:59:05;;;;;;;5.55;1.88;;;16.80;91.30;;;;;;5027961;28;20205;-36
2022/06/14 07:01:42;;;;;;;11.82;2.60;;;16.90;91.40;;;;;;5027197;28;20547;-36
2022/06/14 07:04:20;;;;;;;4.63;1.60;;;16.90;91.40;;;;;;5028541;28;20591;-36
2022/06/14 07:06:59;;;;;;;3.55;1.40;;;16.90;91.40;;;;;;5028238;28;20759;-36
2022/06/14 07:09:45;;;;;;;5.03;1.92;;;17.00;91.50;;;;;;5023302;28;20354;-36
2022/06/14 07:12:20;;;;;;;4.45;1.38;;;17.00;91.40;;;;;;5022714;28;20197;-36
2022/06/14 07:14:52;;;;;;;4.82;1.80;;;17.10;91.50;;;;;;5034983;28;20291;-36
2022/06/14 07:17:33;;;;;;;5.60;1.88;;;17.10;91.40;;;;;;5034263;28;20233;-36
2022/06/14 07:20:06;;;;;;;4.32;1.58;;;17.10;91.60;;;;;;5023229;28;20212;-36
2022/06/14 07:22:40;;;;;;;7.20;2.17;;;17.10;91.40;;;;;;5026532;28;20201;-36
2022/06/14 07:25:51;;;;;;;4.25;1.58;;;17.10;91.40;;;;;;5020891;28;20204;-36
2022/06/14 07:28:31;;;;;;;6.10;1.50;;;17.20;91.50;;;;;;5004452;28;20718;-36
2022/06/14 07:31:04;;;;;;;5.65;1.75;;;17.30;91.50;;;;;;5005383;28;20303;-36
2022/06/14 07:33:39;;;;;;;6.45;1.83;;;17.30;91.60;;;;;;5013141;28;20212;-36
2022/06/14 07:36:52;;;;;;;4.47;1.50;;;17.30;91.60;;;;;;5028021;28;20217;-36
2022/06/14 07:39:23;;;;;;;4.28;1.42;;;17.40;91.60;;;;;;5004911;28;20217;-36
2022/06/14 07:42:12;;;;;;;8.50;2.08;;;17.50;91.70;;;;;;5028347;28;20220;-36
2022/06/14 07:44:47;;;;;;;6.25;2.00;;;17.50;91.70;;;;;;5028848;28;20216;-36
2022/06/14 07:47:26;;;;;;;5.75;1.77;;;17.60;91.70;;;;;;5045333;28;20199;-37
2022/06/14 07:50:14;;;;;;;4.60;1.75;;;17.60;91.70;;;;;;5027215;28;20212;-36
2022/06/14 07:52:49;;;;;;;4.63;1.52;;;17.70;91.70;;;;;;5024561;28;20216;-36
2022/06/14 07:55:27;;;;;;;2.88;1.58;;;17.70;91.70;;;;;;5021636;28;20569;-36
2022/06/14 07:58:04;;;;;;;3.35;1.45;;;17.80;91.70;;;;;;5025495;28;20290;-36
2022/06/14 08:03:50;;;;;;;4.55;1.55;;;17.90;91.80;;;;;;5026710;28;20209;-37
2022/06/14 08:06:28;;;;;;;4.78;1.63;;;17.90;91.70;;;;;;5023220;28;20213;-37
2022/06/14 08:09:25;;;;;;;4.55;1.20;;;17.90;91.70;;;;;;5029015;28;20296;-36
2022/06/14 08:12:01;;;;;;;5.35;1.90;;;18.00;91.80;;;;;;5027078;28;20636;-37
2022/06/14 08:14:47;;;;;;;6.10;1.63;;;18.00;91.80;;;;;;5028358;28;20296;-36
2022/06/14 08:17:30;;;;;;;3.72;1.48;;;18.10;91.80;;;;;;5022125;28;20782;-43
2022/06/14 08:20:19;;;;;;;4.65;1.50;;;18.10;91.80;;;;;;5029106;28;20193;-36
2022/06/14 08:22:52;;;;;;;6.70;1.75;;;18.10;91.80;;;;;;5055805;28;20291;-36
2022/06/14 08:25:25;;;;;;;3.92;1.50;;;18.20;91.80;;;;;;5025660;28;20304;-36
2022/06/14 08:28:09;;;;;;;6.05;1.65;;;18.20;91.80;;;;;;5030197;28;20244;-36
2022/06/14 08:31:07;;;;;;;4.15;1.80;;;18.20;91.80;;;;;;5027225;28;20247;-36
2022/06/14 08:33:41;;;;;;;4.53;1.60;;;18.20;91.70;;;;;;5022299;28;20278;-36
2022/06/14 08:36:15;;;;;;;4.47;1.65;;;18.20;91.70;;;;;;5030208;28;20201;-36
2022/06/14 08:38:54;;;;;;;5.28;1.50;;;18.30;91.80;;;;;;5028960;28;20243;-36
2022/06/14 08:41:47;;;;;;;5.78;1.60;;;18.30;91.80;;;;;;5026113;28;20240;-36
2022/06/14 08:44:23;;;;;;;4.80;1.58;;;18.30;91.70;;;;;;5030788;28;20267;-36
2022/06/14 08:46:56;;;;;;;4.85;1.83;;;18.30;91.70;;;;;;5030048;28;20638;-37
2022/06/14 08:49:45;;;;;;;3.42;1.27;;;18.30;91.70;;;;;;5018606;28;20662;-37
2022/06/14 08:52:38;;;;;;;4.45;1.50;;;18.40;91.80;;;;;;5026404;28;20197;-37
2022/06/14 08:55:24;;;;;;;4.20;1.30;;;18.40;91.80;;;;;;5026871;28;20197;-36
2022/06/14 08:57:52;;;;;;;5.30;1.50;;;18.40;91.70;;;;;;5025684;28;20734;-36
2022/06/14 09:00:31;;;;;;;5.80;1.88;;;18.40;91.80;;;;;;5028953;28;20599;-37
2022/06/14 09:03:29;;;;;;;3.13;1.10;;;18.40;92.10;;;;;;5026740;28;20296;-36
2022/06/14 09:06:19;;;;;;;3.25;1.27;;;18.50;91.90;;;;;;5028424;28;20201;-37
2022/06/14 09:09:06;;;;;;;4.03;1.50;;;18.50;91.90;;;;;;5027359;28;20201;-36
2022/06/14 09:11:49;;;;;;;3.58;1.38;;;18.60;91.90;;;;;;5025912;28;20667;-36
2022/06/14 09:14:22;;;;;;;3.20;1.20;;;18.60;91.90;;;;;;5038931;28;20209;-37
2022/06/14 09:17:20;;;;;;;6.28;1.80;;;18.60;91.90;;;;;;5012424;28;20221;-37
2022/06/14 09:20:31;;;;;;;3.83;1.30;;;18.60;91.80;;;;;;5029226;28;20207;-37
2022/06/14 09:23:11;;;;;;;4.35;1.40;;;18.70;91.80;;;;;;5027441;28;20765;-36
2022/06/14 09:25:57;;;;;;;2.72;1.30;;;18.60;91.80;;;;;;5028116;28;20228;-37
2022/06/14 09:28:42;;;;;;;3.95;1.58;;;18.70;91.90;;;;;;5041880;28;20743;-36
2022/06/14 09:31:28;;;;;;;5.82;1.48;;;18.80;92.00;;;;;;5027833;28;20215;-36
2022/06/14 09:34:16;;;;;;;3.83;1.55;;;18.80;91.90;;;;;;5027703;28;20221;-37
2022/06/14 09:37:05;;;;;;;3.75;1.48;;;18.90;92.00;;;;;;5049184;28;20209;-37
2022/06/14 09:39:39;;;;;;;4.13;1.50;;;18.90;92.00;;;;;;5036201;28;20224;-37
2022/06/14 09:42:08;;;;;;;4.80;1.80;;;18.90;92.00;;;;;;5024547;28;20307;-37
2022/06/14 09:45:18;;;;;;;3.45;1.63;;;19.00;91.90;;;;;;5020696;28;20220;-37
2022/06/14 09:48:10;;;;;;;7.25;1.98;;;19.00;91.90;;;;;;5045544;28;20254;-36
2022/06/14 09:51:07;;;;;;;5.55;1.58;;;19.00;91.80;;;;;;5035954;28;20584;-37
2022/06/14 09:53:58;;;;;;;5.05;1.55;;;19.00;91.80;;;;;;5015873;28;20274;-36
2022/06/14 09:56:40;;;;;;;3.60;1.40;;;19.00;91.70;;;;;;5038488;28;20228;-37
2022/06/14 09:59:35;;;;;;;4.32;1.73;;;19.00;91.70;;;;;;5012869;28;20734;-37
2022/06/14 10:02:29;;;;;;;4.30;1.92;;;19.10;91.80;;;;;;5015173;28;20282;-37
2022/06/14 10:05:30;;;;;;;4.00;1.50;;;19.20;91.90;;;;;;5024203;28;20205;-36
2022/06/14 10:08:19;;;;;;;3.08;1.42;;;19.20;92.00;;;;;;5021871;28;20567;-36
2022/06/14 10:10:52;;;;;;;3.80;2.00;;;19.30;92.00;;;;;;5017346;28;20970;-36
2022/06/14 10:13:34;;;;;;;3.45;1.58;;;19.30;91.90;;;;;;5021609;28;20631;-37
2022/06/14 10:16:13;;;;;;;3.97;1.65;;;19.40;91.90;;;;;;5027942;28;20220;-36
2022/06/14 10:18:59;;;;;;;4.88;1.60;;;19.40;91.90;;;;;;5026896;28;20225;-36
2022/06/14 10:21:37;;;;;;;5.18;1.73;;;19.40;91.90;;;;;;5020615;28;20278;-35
2022/06/14 10:24:07;;;;;;;2.67;1.20;;;19.50;92.00;;;;;;5023555;28;20255;-36
2022/06/14 10:30:19;;;;;;;7.00;1.85;;;19.60;92.00;;;;;;5013921;28;20221;-37
2022/06/14 10:33:16;;;;;;;5.35;1.83;;;19.60;92.00;;;;;;5039866;28;20196;-36
2022/06/14 10:36:03;;;;;;;5.45;1.65;;;19.70;92.00;;;;;;5007593;28;20727;-37
2022/06/14 10:38:39;;;;;;;5.13;1.80;;;19.70;92.20;;;;;;5022067;28;20648;-37
2022/06/14 10:41:18;;;;;;;5.47;1.88;;;19.80;92.10;;;;;;5025743;28;20212;-36
2022/06/14 10:44:12;;;;;;;4.53;1.50;;;19.80;92.20;;;;;;5025392;28;20212;-37
2022/06/14 10:46:45;;;;;;;5.60;1.83;;;19.90;92.30;;;;;;5025770;28;20205;-36
2022/06/14 10:49:38;;;;;;;5.68;1.60;;;19.90;92.20;;;;;;5026097;28;20193;-37
2022/06/14 10:52:32;;;;;;;5.00;1.80;;;20.00;92.30;;;;;;5020450;28;20208;-36
2022/06/14 10:55:15;;;;;;;4.50;1.50;;;20.00;92.30;;;;;;5026393;28;20223;-40
2022/06/14 10:58:24;;;;;;;5.78;1.75;;;20.00;92.10;;;;;;5022645;28;20233;-40
2022/06/14 11:01:01;;;;;;;4.97;1.60;;;20.00;92.10;;;;;;5026836;28;20243;-40
2022/06/14 11:03:54;;;;;;;6.35;1.80;;;20.10;92.30;;;;;;5027264;28;20290;-40
2022/06/14 11:06:44;;;;;;;5.20;1.80;;;20.10;92.10;;;;;;5021276;28;20197;-39
2022/06/14 11:09:29;;;;;;;2.17;1.33;;;20.10;91.90;;;;;;5024496;28;20217;-39
2022/06/14 11:12:34;;;;;;;3.38;1.35;;;20.20;92.10;;;;;;5017606;28;20272;-39
2022/06/14 11:15:17;;;;;;;7.35;1.58;;;20.20;91.90;;;;;;5021760;28;20205;-40
2022/06/14 11:17:52;;;;;;;3.55;1.50;;;20.20;92.10;;;;;;5023435;28;20996;-39
2022/06/14 11:20:31;;;;;;;5.05;1.50;;;20.30;92.10;;;;;;5008496;28;20201;-39
2022/06/14 11:23:21;;;;;;;6.10;1.80;;;20.40;92.20;;;;;;5022006;28;20217;-40
2022/06/14 11:26:09;;;;;;;4.28;1.33;;;20.50;92.20;;;;;;5025926;28;20213;-40
2022/06/14 11:29:13;;;;;;;5.00;1.58;;;20.60;92.30;;;;;;5024632;28;20624;-41
2022/06/14 11:31:52;;;;;;;4.32;1.52;;;20.60;92.40;;;;;;5018410;28;20208;-43
2022/06/14 11:34:43;;;;;;;6.20;1.90;;;20.70;92.40;;;;;;5023930;28;20677;-47
2022/06/14 11:37:41;;;;;;;3.85;1.45;;;20.80;92.40;;;;;;5053242;28;20204;-45
2022/06/14 11:40:28;;;;;;;5.32;1.33;;;20.80;92.20;;;;;;5028458;28;20305;-45
2022/06/14 11:42:58;;;;;;;5.28;1.67;;;20.80;92.10;;;;;;5027974;28;20227;-44
2022/06/14 11:46:01;;;;;;;2.95;1.40;;;20.80;91.90;;;;;;5032296;28;20227;-45
2022/06/14 11:48:28;;;;;;;4.38;1.70;;;20.90;92.20;;;;;;5030758;28;20271;-45
2022/06/14 11:51:22;;;;;;;7.03;1.90;;;20.90;92.20;;;;;;5031963;28;20215;-46
2022/06/14 11:54:16;;;;;;;9.25;2.08;;;21.00;92.30;;;;;;5036458;28;20756;-47
2022/06/14 11:56:55;;;;;;;5.60;1.75;;;21.10;92.30;;;;;;5029421;28;20251;-47
2022/06/14 11:59:47;;;;;;;6.22;1.27;;;21.10;92.20;;;;;;5028574;28;20651;-49
2022/06/14 12:02:36;;;;;;;5.35;1.65;;;21.10;92.60;;;;;;5025805;28;20199;-48
2022/06/14 12:05:16;;;;;;;4.03;1.60;;;21.20;92.20;;;;;;5029470;28;20999;-50
2022/06/14 12:08:02;;;;;;;4.07;1.30;;;21.20;92.30;;;;;;5029010;28;20272;-47
2022/06/14 12:10:42;;;;;;;5.65;1.70;;;21.20;92.40;;;;;;5024992;28;20640;-42
2022/06/14 12:13:29;;;;;;;3.55;1.60;;;21.30;92.30;;;;;;5044555;28;20589;-42
2022/06/14 12:16:30;;;;;;;3.28;1.20;;;21.30;92.20;;;;;;5026500;28;20457;-42
2022/06/14 12:19:20;;;;;;;2.63;1.27;;;21.40;92.40;;;;;;5022529;28;20220;-43
2022/06/14 12:22:34;;;;;;;3.85;1.55;;;21.50;92.40;;;;;;5023209;28;20278;-43
2022/06/14 12:28:41;;;;;;;4.25;1.60;;;21.50;92.40;;;;;;5036526;28;20632;-40
2022/06/14 12:31:12;;;;;;;2.45;1.00;;;21.50;92.30;;;;;;5019889;28;20288;-39
2022/06/14 12:33:50;;;;;;;3.10;1.30;;;21.60;92.20;;;;;;5035715;28;20212;-40
2022/06/14 12:36:23;;;;;;;2.90;1.15;;;21.60;92.40;;;;;;5035345;28;20243;-40
2022/06/14 12:38:55;;;;;;;4.32;1.50;;;21.70;92.50;;;;;;5029742;28;20244;-40
2022/06/14 12:41:31;;;;;;;3.95;1.40;;;21.80;92.60;;;;;;5030603;28;20200;-40
2022/06/14 12:44:22;;;;;;;1.85;1.10;;;21.90;92.60;;;;;;5027414;28;20209;-40
2022/06/14 12:46:52;;;;;;;2.38;1.10;;;22.00;92.70;;;;;;5027410;28;20292;-40
2022/06/14 12:49:29;;;;;;;4.25;1.50;;;22.10;92.70;;;;;;5028735;28;20291;-40
2022/06/14 12:52:12;;;;;;;2.35;1.02;;;22.20;92.60;;;;;;5026702;28;20211;-40
2022/06/14 12:54:58;;;;;;;4.43;1.55;;;22.30;92.70;;;;;;5030326;28;20216;-40
2022/06/14 12:57:59;;;;;;;3.47;1.30;;;22.30;92.70;;;;;;5028473;28;20229;-40
2022/06/14 13:00:35;;;;;;;3.83;1.73;;;22.40;92.30;;;;;;5027824;28;20227;-41
2022/06/14 13:03:05;;;;;;;5.40;1.48;;;22.40;92.60;;;;;;5027247;28;20208;-40
2022/06/14 13:05:40;;;;;;;3.00;1.40;;;22.40;92.70;;;;;;5022742;28;20227;-40
2022/06/14 13:08:26;;;;;;;7.63;1.60;;;22.50;92.70;;;;;;5024469;28;20215;-40
2022/06/14 13:11:11;;;;;;;2.47;1.30;;;22.60;92.90;;;;;;5026298;28;20200;-40
2022/06/14 13:14:08;;;;;;;4.15;1.52;;;22.80;93.00;;;;;;5029070;28;20201;-40
2022/06/14 13:16:41;;;;;;;5.53;1.73;;;22.90;93.10;;;;;;5040155;28;20213;-40
2022/06/14 13:19:31;;;;;;;4.75;1.30;;;23.00;92.40;;;;;;5025483;28;20225;-40
2022/06/14 13:22:06;;;;;;;4.30;1.52;;;23.00;92.70;;;;;;5026049;28;20252;-40
2022/06/14 13:24:42;;;;;;;2.67;0.80;;;23.10;92.80;;;;;;5043421;28;20784;-40
2022/06/14 13:27:47;;;;;;;4.28;1.40;;;23.10;93.00;;;;;;5027868;28;20208;-40
2022/06/14 13:30:26;;;;;;;6.50;1.25;;;23.20;92.60;;;;;;5025619;28;20204;-39
2022/06/14 13:33:16;;;;;;;2.67;1.33;;;23.30;92.70;;;;;;5017106;28;20224;-40
2022/06/14 13:35:57;;;;;;;3.13;1.20;;;23.30;93.00;;;;;;5021324;28;20200;-39
2022/06/14 13:38:34;;;;;;;3.58;1.40;;;23.40;93.00;;;;;;5021982;28;20594;-40
2022/06/14 13:41:07;;;;;;;4.47;1.38;;;23.40;92.50;;;;;;5021310;28;20212;-40
2022/06/14 13:43:38;;;;;;;3.47;1.20;;;23.40;92.40;;;;;;5009396;28;20209;-39
2022/06/14 13:46:32;;;;;;;2.38;0.90;;;23.50;92.50;;;;;;5026772;28;20197;-40
2022/06/14 13:49:15;;;;;;;3.33;0.90;;;23.50;92.60;;;;;;5028435;28;20326;-40
2022/06/14 13:51:46;;;;;;;3.45;1.13;;;23.50;92.70;;;;;;5025699;28;20207;-41
2022/06/14 13:54:13;;;;;;;5.18;1.52;;;23.50;92.80;;;;;;5025074;28;20232;-40
2022/06/14 13:56:46;;;;;;;3.55;1.23;;;23.70;93.00;;;;;;5028026;28;20232;-40
2022/06/14 13:59:19;;;;;;;2.60;1.60;;;23.70;92.80;;;;;;5026005;28;20237;-40
2022/06/14 14:01:58;;;;;;;4.18;1.10;;;23.80;92.80;;;;;;5020703;28;20205;-40
2022/06/14 14:05:18;;;;;;;4.03;1.20;;;23.80;92.60;;;;;;5024372;28;20596;-40
2022/06/14 14:08:16;;;;;;;3.67;1.60;;;23.80;92.80;;;;;;5018998;28;20216;-40
2022/06/14 14:11:22;;;;;;;2.78;1.25;;;23.90;92.80;;;;;;5024379;28;20292;-40
2022/06/14 14:14:07;;;;;;;2.75;1.17;;;24.00;93.00;;;;;;5023628;28;20220;-41
2022/06/14 14:16:45;;;;;;;6.93;1.27;;;24.00;93.00;;;;;;5036845;28;20754;-41
2022/06/14 14:19:43;;;;;;;4.30;1.50;;;24.10;91.90;;;;;;5026519;28;20710;-41
2022/06/14 14:22:19;;;;;;;5.40;1.45;;;24.10;91.80;;;;;;5021653;28;20292;-41
2022/06/14 14:25:13;;;;;;;2.50;1.23;;;24.10;92.10;;;;;;5036726;28;20778;-41